EGTC

Cranfield Airport

Cranfield, United Kingdom
METAR EGTC 230950Z 08010KT 6000 BKN029 02/M01 Q1022
Observed Flight Rules
Feb-23 @ 09:50 UTC (38 minutes ago) Marginal Visual Flight Rules
Wind Visibility Clouds
80° at 10 knots 6,003 meters
  • Broken at 2,900' AGL
Temperatures Readings
Current 2°C / 36°F
Dewpoint -1°C / 30°F
Humidity 81%
Altimeter 30.18" Hg
Pressure 1022 hPa
Elevation 111
METAR EGTC 230950Z 08010KT 6000 BKN029 02/M01 Q1022
Observed Flight Rules
Feb-23 @ 09:50 UTC
(38 minutes ago)
MVFR
Wind Visibility
80° at 10 knots 6,003 meters
Clouds
  • Broken at 2,900' AGL
Temperature Dewpoint
2°C / 36°F -1°C / 30°F
Humidity Altimeter Pressure
81% 30.18" Hg 1022 hPa